createdAt,value
2017-12-30T00:00:38.025Z,993.34
2017-12-30T00:01:38.053Z,993.26
2017-12-30T00:02:38.060Z,993.37
2017-12-30T00:03:38.083Z,993.30
2017-12-30T00:04:38.098Z,993.31
2017-12-30T00:05:38.125Z,993.26
2017-12-30T00:06:38.147Z,993.30
2017-12-30T00:07:38.228Z,993.28
2017-12-30T00:08:38.199Z,993.33
2017-12-30T00:09:38.248Z,993.37
2017-12-30T00:10:38.237Z,993.36
2017-12-30T00:11:38.237Z,993.41
2017-12-30T00:12:38.319Z,993.33
2017-12-30T00:13:38.270Z,993.34
2017-12-30T00:14:38.281Z,993.27
2017-12-30T00:15:38.335Z,993.33
2017-12-30T00:16:38.342Z,993.34
2017-12-30T00:17:38.340Z,993.34
2017-12-30T00:18:38.372Z,993.30
2017-12-30T00:19:38.392Z,993.36
2017-12-30T00:20:38.397Z,993.44
2017-12-30T00:21:38.439Z,993.39
2017-12-30T00:22:38.531Z,993.43
2017-12-30T00:23:38.447Z,993.40
2017-12-30T00:24:38.483Z,993.39
2017-12-30T00:25:38.484Z,993.25
2017-12-30T00:26:38.507Z,993.31
2017-12-30T00:27:38.585Z,993.39
2017-12-30T00:28:38.560Z,993.41
2017-12-30T00:29:38.564Z,993.34
2017-12-30T00:30:38.587Z,993.35
2017-12-30T00:31:38.609Z,993.35
2017-12-30T00:32:38.612Z,993.38
2017-12-30T00:33:38.661Z,993.41
2017-12-30T00:34:38.668Z,993.48
2017-12-30T00:35:38.678Z,993.49
2017-12-30T00:36:38.688Z,993.57
2017-12-30T00:37:38.779Z,993.61
2017-12-30T00:38:38.754Z,993.62
2017-12-30T00:39:38.768Z,993.65
2017-12-30T00:40:38.805Z,993.64
2017-12-30T00:41:38.802Z,993.56
2017-12-30T00:42:38.842Z,993.53
2017-12-30T00:43:38.841Z,993.58
2017-12-30T00:44:38.833Z,993.59
2017-12-30T00:45:38.864Z,993.56
2017-12-30T00:46:38.885Z,993.52
2017-12-30T00:47:38.884Z,993.50
2017-12-30T00:48:38.935Z,993.49
2017-12-30T00:49:38.950Z,993.41
2017-12-30T00:50:38.982Z,993.43
2017-12-30T00:51:38.984Z,993.47
2017-12-30T00:52:39.064Z,993.45
2017-12-30T00:53:39.000Z,993.52
2017-12-30T00:54:39.038Z,993.44
2017-12-30T00:55:39.069Z,993.52
2017-12-30T00:56:39.054Z,993.58
2017-12-30T00:57:39.067Z,993.66
2017-12-30T00:58:39.095Z,993.66
2017-12-30T00:59:39.141Z,993.72
2017-12-30T01:00:39.176Z,993.78
2017-12-30T01:01:39.174Z,993.82
2017-12-30T01:02:39.230Z,993.76
2017-12-30T01:03:39.208Z,993.82
2017-12-30T01:04:39.195Z,994.00
2017-12-30T01:05:39.218Z,993.87
2017-12-30T01:06:39.248Z,993.80
2017-12-30T01:07:39.313Z,993.77
2017-12-30T01:08:39.266Z,993.86
2017-12-30T01:09:39.291Z,993.84
2017-12-30T01:10:39.313Z,993.68
2017-12-30T01:11:39.322Z,993.48
2017-12-30T01:12:39.340Z,993.43
2017-12-30T01:13:39.364Z,993.55
2017-12-30T01:14:39.376Z,993.67
2017-12-30T01:15:39.399Z,993.68
2017-12-30T01:16:39.415Z,993.74
2017-12-30T01:17:39.438Z,993.77
2017-12-30T01:18:39.452Z,993.71
2017-12-30T01:19:39.468Z,993.71
2017-12-30T01:20:39.488Z,993.76
2017-12-30T01:21:39.511Z,993.65
2017-12-30T01:22:39.529Z,993.62
2017-12-30T01:23:39.542Z,993.62
2017-12-30T01:24:39.560Z,993.60
2017-12-30T01:25:39.585Z,993.67
2017-12-30T01:26:39.601Z,993.65
2017-12-30T01:27:39.615Z,993.63
2017-12-30T01:28:39.634Z,993.65
2017-12-30T01:29:39.654Z,993.66
2017-12-30T01:30:39.676Z,993.63
2017-12-30T01:31:39.688Z,993.66
2017-12-30T01:32:39.707Z,993.63
2017-12-30T01:33:39.733Z,993.61
2017-12-30T01:34:39.759Z,993.74
2017-12-30T01:35:39.767Z,993.80
2017-12-30T01:36:39.782Z,993.62
2017-12-30T01:37:39.804Z,993.68
2017-12-30T01:38:39.823Z,993.66
2017-12-30T01:39:39.835Z,993.66
2017-12-30T01:40:39.854Z,993.71
2017-12-30T01:41:39.878Z,993.61
2017-12-30T01:42:39.896Z,993.61
2017-12-30T01:43:39.909Z,993.59
2017-12-30T01:44:39.932Z,993.57
2017-12-30T01:45:39.947Z,993.60
2017-12-30T01:46:39.968Z,993.61
2017-12-30T01:47:39.992Z,993.60
2017-12-30T01:48:40.000Z,993.63
2017-12-30T01:49:40.020Z,993.68
2017-12-30T01:50:40.036Z,993.65
2017-12-30T01:51:40.061Z,993.65
2017-12-30T01:52:40.079Z,993.63
2017-12-30T01:53:40.092Z,993.65
2017-12-30T01:54:40.115Z,993.60
2017-12-30T01:55:40.127Z,993.65
2017-12-30T01:56:40.153Z,993.65
2017-12-30T01:57:40.165Z,993.64
2017-12-30T01:58:40.189Z,993.67
2017-12-30T01:59:40.201Z,993.60
2017-12-30T02:00:40.220Z,993.67
2017-12-30T02:01:40.244Z,993.69
2017-12-30T02:02:40.263Z,993.67
2017-12-30T02:03:40.279Z,993.64
2017-12-30T02:04:40.298Z,993.67
2017-12-30T02:05:40.317Z,993.64
2017-12-30T02:06:40.329Z,993.56
2017-12-30T02:07:40.352Z,993.56
2017-12-30T02:08:40.371Z,993.50
2017-12-30T02:09:40.391Z,993.46
2017-12-30T02:10:40.407Z,993.48
2017-12-30T02:11:40.421Z,993.43
2017-12-30T02:12:40.439Z,993.47
2017-12-30T02:13:40.465Z,993.44
2017-12-30T02:14:40.481Z,993.47
2017-12-30T02:15:40.496Z,993.55
2017-12-30T02:16:40.512Z,993.52
2017-12-30T02:17:40.539Z,993.49
2017-12-30T02:18:40.553Z,993.46
2017-12-30T02:19:40.568Z,993.45
2017-12-30T02:20:40.589Z,993.45
2017-12-30T02:21:40.610Z,993.40
2017-12-30T02:22:40.628Z,993.38
2017-12-30T02:23:40.640Z,993.37
2017-12-30T02:24:40.660Z,993.34
2017-12-30T02:25:40.683Z,993.41
2017-12-30T02:26:40.695Z,993.31
2017-12-30T02:27:40.723Z,993.38
2017-12-30T02:28:40.733Z,993.31
2017-12-30T02:29:40.756Z,993.35
2017-12-30T02:30:40.768Z,993.39
2017-12-30T02:31:40.794Z,993.32
2017-12-30T02:32:40.806Z,993.35
2017-12-30T02:33:40.831Z,993.41
2017-12-30T02:34:40.842Z,993.33
2017-12-30T02:35:40.865Z,993.33
2017-12-30T02:36:40.879Z,993.31
2017-12-30T02:37:40.903Z,993.23
2017-12-30T02:38:40.917Z,993.31
2017-12-30T02:39:40.940Z,993.25
2017-12-30T02:40:40.958Z,993.31
2017-12-30T02:41:40.972Z,993.22
2017-12-30T02:42:40.996Z,993.16
2017-12-30T02:43:41.009Z,993.21
2017-12-30T02:44:41.032Z,993.16
2017-12-30T02:45:41.044Z,993.18
2017-12-30T02:46:41.068Z,993.21
2017-12-30T02:47:41.081Z,993.17
2017-12-30T02:48:41.105Z,993.17
2017-12-30T02:49:41.118Z,993.15
2017-12-30T02:50:41.142Z,993.23
2017-12-30T02:51:41.155Z,993.24
2017-12-30T02:52:41.179Z,993.21
2017-12-30T02:53:41.192Z,993.31
2017-12-30T02:54:41.214Z,993.20
2017-12-30T02:55:41.227Z,993.27
2017-12-30T02:56:41.246Z,993.21
2017-12-30T02:57:41.270Z,993.29
2017-12-30T02:58:41.288Z,993.28
2017-12-30T02:59:41.300Z,993.26
2017-12-30T03:00:41.319Z,993.28
2017-12-30T03:01:41.343Z,993.24
2017-12-30T03:02:41.361Z,993.22
2017-12-30T03:03:41.375Z,993.20
2017-12-30T03:04:41.393Z,993.25
2017-12-30T03:05:41.417Z,993.17
2017-12-30T03:06:41.434Z,993.12
2017-12-30T03:07:41.451Z,993.12
2017-12-30T03:08:41.468Z,993.11
2017-12-30T03:09:41.490Z,993.02
2017-12-30T03:10:41.508Z,993.00
2017-12-30T03:11:41.521Z,993.07
2017-12-30T03:12:41.545Z,993.00
2017-12-30T03:13:41.585Z,993.02
2017-12-30T03:14:41.575Z,992.99
2017-12-30T03:15:41.598Z,992.99
2017-12-30T03:16:41.617Z,992.98
2017-12-30T03:17:41.630Z,993.00
2017-12-30T03:18:41.648Z,993.00
2017-12-30T03:19:41.672Z,993.03
2017-12-30T03:20:41.686Z,993.01
2017-12-30T03:21:41.709Z,993.08
2017-12-30T03:22:41.726Z,992.96
2017-12-30T03:23:41.739Z,992.91
2017-12-30T03:24:41.758Z,992.94
2017-12-30T03:25:41.781Z,993.02
2017-12-30T03:26:41.799Z,993.00
2017-12-30T03:27:41.812Z,993.08
2017-12-30T03:28:41.832Z,993.05
2017-12-30T03:29:41.855Z,993.01
2017-12-30T03:30:41.873Z,992.97
2017-12-30T03:31:41.886Z,993.00
2017-12-30T03:32:41.904Z,993.01
2017-12-30T03:33:41.927Z,992.97
2017-12-30T03:34:41.944Z,993.05
2017-12-30T03:35:41.957Z,993.08
2017-12-30T03:36:41.976Z,993.13
2017-12-30T03:37:42.001Z,993.10
2017-12-30T03:38:42.013Z,993.03
2017-12-30T03:39:42.035Z,993.07
2017-12-30T03:40:42.048Z,992.97
2017-12-30T03:41:42.072Z,992.98
2017-12-30T03:42:42.084Z,992.99
2017-12-30T03:43:42.108Z,993.00
2017-12-30T03:44:42.122Z,993.04
2017-12-30T03:45:42.144Z,993.02
2017-12-30T03:46:42.155Z,993.02
2017-12-30T03:47:42.180Z,993.01
2017-12-30T03:48:42.193Z,993.04
2017-12-30T03:49:42.217Z,993.01
2017-12-30T03:50:42.230Z,992.98
2017-12-30T03:51:42.252Z,992.97
2017-12-30T03:52:42.271Z,992.94
2017-12-30T03:53:42.282Z,992.97
2017-12-30T03:54:42.306Z,993.00
2017-12-30T03:55:42.319Z,992.99
2017-12-30T03:56:42.342Z,992.97
2017-12-30T03:57:42.355Z,993.00
2017-12-30T03:58:42.378Z,993.06
2017-12-30T03:59:42.391Z,993.05
2017-12-30T04:00:42.415Z,993.07
2017-12-30T04:01:42.429Z,993.01
2017-12-30T04:02:42.450Z,993.00
2017-12-30T04:03:42.463Z,992.99
2017-12-30T04:04:42.486Z,993.00
2017-12-30T04:05:42.504Z,992.97
2017-12-30T04:06:42.522Z,993.01
2017-12-30T04:07:42.534Z,993.02
2017-12-30T04:08:42.553Z,993.04
2017-12-30T04:09:42.576Z,993.00
2017-12-30T04:10:42.593Z,992.96
2017-12-30T04:11:42.606Z,992.96
2017-12-30T04:12:42.624Z,992.90
2017-12-30T04:13:42.647Z,992.94
2017-12-30T04:14:42.666Z,992.94
2017-12-30T04:15:42.682Z,992.93
2017-12-30T04:16:42.695Z,992.97
2017-12-30T04:17:42.719Z,992.98
2017-12-30T04:18:42.735Z,993.02
2017-12-30T04:19:42.748Z,992.98
2017-12-30T04:20:42.767Z,993.04
2017-12-30T04:21:42.790Z,992.97
2017-12-30T04:22:42.807Z,993.00
2017-12-30T04:23:42.821Z,993.00
2017-12-30T04:24:42.837Z,993.00
2017-12-30T04:25:42.857Z,992.95
2017-12-30T04:26:42.878Z,992.94
2017-12-30T04:27:42.891Z,992.94
2017-12-30T04:28:42.909Z,992.96
2017-12-30T04:29:42.933Z,992.90
2017-12-30T04:30:42.948Z,992.97
2017-12-30T04:31:42.968Z,992.98
2017-12-30T04:32:42.986Z,992.95
2017-12-30T04:33:42.998Z,992.96
2017-12-30T04:34:43.021Z,993.06
2017-12-30T04:35:43.033Z,993.02
2017-12-30T04:36:43.077Z,992.91
2017-12-30T04:37:43.069Z,992.95
2017-12-30T04:38:43.092Z,992.98
2017-12-30T04:39:43.104Z,993.00
2017-12-30T04:40:43.128Z,992.97
2017-12-30T04:41:43.146Z,992.97
2017-12-30T04:42:43.162Z,992.90
2017-12-30T04:43:43.179Z,992.96
2017-12-30T04:44:43.199Z,992.86
2017-12-30T04:45:43.211Z,992.84
2017-12-30T04:46:43.234Z,992.87
2017-12-30T04:47:43.252Z,992.84
2017-12-30T04:48:43.264Z,992.79
2017-12-30T04:49:43.288Z,992.79
2017-12-30T04:50:43.300Z,992.74
2017-12-30T04:51:43.323Z,992.68
2017-12-30T04:52:43.335Z,992.71
2017-12-30T04:53:43.362Z,992.67
2017-12-30T04:54:43.371Z,992.70
2017-12-30T04:55:43.394Z,992.75
2017-12-30T04:56:43.412Z,992.75
2017-12-30T04:57:43.424Z,992.77
2017-12-30T04:58:43.442Z,992.78
2017-12-30T04:59:43.459Z,992.71
2017-12-30T05:00:43.478Z,992.73
2017-12-30T05:01:43.496Z,992.73
2017-12-30T05:02:43.519Z,992.76
2017-12-30T05:03:43.531Z,992.75
2017-12-30T05:04:43.548Z,992.69
2017-12-30T05:05:43.573Z,992.72
2017-12-30T05:06:43.590Z,992.64
2017-12-30T05:07:43.603Z,992.71
2017-12-30T05:08:43.619Z,992.67
2017-12-30T05:09:43.643Z,992.73
2017-12-30T05:10:43.661Z,992.73
2017-12-30T05:11:43.674Z,992.72
2017-12-30T05:12:43.698Z,992.69
2017-12-30T05:13:43.707Z,992.69
2017-12-30T05:14:43.732Z,992.71
2017-12-30T05:15:43.750Z,992.66
2017-12-30T05:16:43.762Z,992.65
2017-12-30T05:17:43.780Z,992.69
2017-12-30T05:18:43.797Z,992.63
2017-12-30T05:19:43.821Z,992.62
2017-12-30T05:20:43.839Z,992.58
2017-12-30T05:21:43.851Z,992.60
2017-12-30T05:22:43.868Z,992.58
2017-12-30T05:23:43.892Z,992.65
2017-12-30T05:24:43.910Z,992.66
2017-12-30T05:25:43.922Z,992.68
2017-12-30T05:26:43.939Z,992.62
2017-12-30T05:27:43.962Z,992.63
2017-12-30T05:28:43.974Z,992.66
2017-12-30T05:29:43.994Z,992.63
2017-12-30T05:30:44.017Z,992.56
2017-12-30T05:31:44.028Z,992.55
2017-12-30T05:32:44.045Z,992.57
2017-12-30T05:33:44.071Z,992.52
2017-12-30T05:34:44.086Z,992.58
2017-12-30T05:35:44.106Z,992.66
2017-12-30T05:36:44.118Z,992.64
2017-12-30T05:37:44.140Z,992.72
2017-12-30T05:38:44.159Z,992.68
2017-12-30T05:39:44.170Z,992.71
2017-12-30T05:40:44.188Z,992.68
2017-12-30T05:41:44.212Z,992.65
2017-12-30T05:42:44.229Z,992.61
2017-12-30T05:43:44.242Z,992.53
2017-12-30T05:44:44.265Z,992.64
2017-12-30T05:45:44.283Z,992.61
2017-12-30T05:46:44.301Z,992.62
2017-12-30T05:47:44.312Z,992.58
2017-12-30T05:48:44.336Z,992.62
2017-12-30T05:49:44.348Z,992.59
2017-12-30T05:50:44.372Z,992.45
2017-12-30T05:51:44.389Z,992.54
2017-12-30T05:52:44.408Z,992.58
2017-12-30T05:53:44.419Z,992.58
2017-12-30T05:54:44.441Z,992.60
2017-12-30T05:55:44.455Z,992.60
2017-12-30T05:56:44.480Z,992.56
2017-12-30T05:57:44.490Z,992.51
2017-12-30T05:58:44.513Z,992.54
2017-12-30T05:59:44.525Z,992.48
2017-12-30T06:00:44.545Z,992.55
2017-12-30T06:01:44.561Z,992.47
2017-12-30T06:02:44.578Z,992.39
2017-12-30T06:03:44.597Z,992.30
2017-12-30T06:04:44.616Z,992.23
2017-12-30T06:05:44.639Z,992.21
2017-12-30T06:06:44.655Z,992.17
2017-12-30T06:07:44.698Z,992.14
2017-12-30T06:08:44.686Z,992.10
2017-12-30T06:09:44.710Z,992.12
2017-12-30T06:10:44.721Z,992.14
2017-12-30T06:11:44.745Z,992.08
2017-12-30T06:12:44.758Z,992.08
2017-12-30T06:13:44.781Z,992.02
2017-12-30T06:14:44.792Z,992.02
2017-12-30T06:15:44.815Z,992.01
2017-12-30T06:16:44.830Z,992.04
2017-12-30T06:17:44.848Z,992.02
2017-12-30T06:18:44.870Z,992.02
2017-12-30T06:19:44.887Z,992.02
2017-12-30T06:20:44.900Z,992.01
2017-12-30T06:21:44.923Z,991.99
2017-12-30T06:22:44.935Z,992.01
2017-12-30T06:23:44.959Z,992.10
2017-12-30T06:24:44.977Z,992.15
2017-12-30T06:25:44.989Z,992.16
2017-12-30T06:26:45.013Z,992.09
2017-12-30T06:27:45.024Z,992.12
2017-12-30T06:28:45.051Z,992.13
2017-12-30T06:29:45.061Z,992.06
2017-12-30T06:30:45.084Z,992.06
2017-12-30T06:31:45.096Z,991.98
2017-12-30T06:32:45.114Z,991.94
2017-12-30T06:33:45.138Z,991.97
2017-12-30T06:34:45.149Z,991.97
2017-12-30T06:35:45.173Z,991.96
2017-12-30T06:36:45.185Z,991.93
2017-12-30T06:37:45.211Z,991.95
2017-12-30T06:38:45.221Z,991.91
2017-12-30T06:39:45.246Z,991.93
2017-12-30T06:40:45.258Z,991.92
2017-12-30T06:41:45.281Z,991.88
2017-12-30T06:42:45.299Z,991.85
2017-12-30T06:43:45.311Z,991.87
2017-12-30T06:44:45.331Z,991.87
2017-12-30T06:45:45.354Z,991.75
2017-12-30T06:46:45.371Z,991.78
2017-12-30T06:47:45.384Z,991.66
2017-12-30T06:48:45.407Z,991.46
2017-12-30T06:49:45.425Z,991.46
2017-12-30T06:50:45.442Z,991.49
2017-12-30T06:51:45.455Z,991.46
2017-12-30T06:52:45.479Z,991.53
2017-12-30T06:53:45.491Z,991.59
2017-12-30T06:54:45.563Z,991.55
2017-12-30T06:55:45.527Z,991.53
2017-12-30T06:56:45.546Z,991.48
2017-12-30T06:57:45.570Z,991.47
2017-12-30T06:58:45.586Z,991.44
2017-12-30T06:59:45.599Z,991.42
2017-12-30T07:00:45.617Z,991.44
2017-12-30T07:01:45.641Z,991.39
2017-12-30T07:02:45.658Z,991.37
2017-12-30T07:03:45.671Z,991.28
2017-12-30T07:04:45.694Z,991.29
2017-12-30T07:05:45.708Z,991.35
2017-12-30T07:06:45.724Z,991.39
2017-12-30T07:07:45.749Z,991.45
2017-12-30T07:08:45.767Z,991.38
2017-12-30T07:09:45.779Z,991.35
2017-12-30T07:10:45.797Z,991.27
2017-12-30T07:11:45.821Z,991.19
2017-12-30T07:12:45.834Z,991.11
2017-12-30T07:13:45.856Z,991.16
2017-12-30T07:14:45.869Z,991.16
2017-12-30T07:15:45.892Z,991.24
2017-12-30T07:16:45.904Z,991.30
2017-12-30T07:17:45.929Z,991.40
2017-12-30T07:18:45.939Z,991.34
2017-12-30T07:19:45.965Z,991.30
2017-12-30T07:20:45.977Z,991.22
2017-12-30T07:21:46.000Z,991.23
2017-12-30T07:22:46.017Z,991.23
2017-12-30T07:23:46.030Z,991.28
2017-12-30T07:24:46.052Z,991.24
2017-12-30T07:25:46.074Z,991.10
2017-12-30T07:26:46.091Z,991.00
2017-12-30T07:27:46.102Z,990.96
2017-12-30T07:28:46.126Z,990.85
2017-12-30T07:29:46.141Z,990.83
2017-12-30T07:30:46.160Z,990.67
2017-12-30T07:31:46.175Z,990.73
2017-12-30T07:32:46.198Z,990.66
2017-12-30T07:33:46.213Z,990.63
2017-12-30T07:34:46.231Z,990.62
2017-12-30T07:35:46.247Z,990.61
2017-12-30T07:36:46.268Z,990.65
2017-12-30T07:37:46.283Z,990.68
2017-12-30T07:38:46.306Z,990.75
2017-12-30T07:39:46.316Z,990.79
2017-12-30T07:40:46.340Z,990.78
2017-12-30T07:41:46.352Z,990.76
2017-12-30T07:42:46.376Z,990.78
2017-12-30T07:43:46.389Z,990.74
2017-12-30T07:44:46.406Z,990.87
2017-12-30T07:45:46.430Z,990.79
2017-12-30T07:46:46.447Z,990.81
2017-12-30T07:47:46.460Z,990.70
2017-12-30T07:48:46.481Z,990.71
2017-12-30T07:49:46.501Z,990.63
2017-12-30T07:50:46.517Z,990.61
2017-12-30T07:51:46.530Z,990.54
2017-12-30T07:52:46.550Z,990.45
2017-12-30T07:53:46.572Z,990.44
2017-12-30T07:54:46.591Z,990.26
2017-12-30T07:55:46.601Z,990.19
2017-12-30T07:56:46.619Z,990.15
2017-12-30T07:57:46.643Z,990.06
2017-12-30T07:58:46.660Z,989.98
2017-12-30T07:59:46.673Z,989.97
2017-12-30T08:00:46.691Z,990.03
2017-12-30T08:01:46.713Z,990.15
2017-12-30T08:02:46.733Z,990.20
2017-12-30T08:03:46.744Z,990.05
2017-12-30T08:04:46.761Z,989.90
2017-12-30T08:05:46.784Z,989.85
2017-12-30T08:06:46.802Z,989.87
2017-12-30T08:07:46.813Z,989.76
2017-12-30T08:08:46.831Z,989.71
2017-12-30T08:09:46.862Z,989.73
2017-12-30T08:10:46.875Z,989.62
2017-12-30T08:11:46.883Z,989.55
2017-12-30T08:12:46.935Z,989.55
2017-12-30T08:13:46.925Z,989.46
2017-12-30T08:14:46.942Z,989.40
2017-12-30T08:15:46.954Z,989.37
2017-12-30T08:16:46.971Z,989.32
2017-12-30T08:17:46.995Z,989.35
2017-12-30T08:18:47.006Z,989.31
2017-12-30T08:19:47.030Z,989.22
2017-12-30T08:20:47.042Z,989.21
2017-12-30T08:21:47.067Z,989.15
2017-12-30T08:22:47.077Z,989.10
2017-12-30T08:23:47.104Z,989.06
2017-12-30T08:24:47.113Z,989.08
2017-12-30T08:25:47.138Z,989.14
2017-12-30T08:26:47.148Z,989.08
2017-12-30T08:27:47.171Z,989.05
2017-12-30T08:28:47.184Z,989.02
2017-12-30T08:29:47.208Z,988.92
2017-12-30T08:30:47.218Z,988.76
2017-12-30T08:31:47.242Z,988.78
2017-12-30T08:32:47.261Z,988.71
2017-12-30T08:33:47.273Z,988.57
2017-12-30T08:34:47.290Z,988.56
2017-12-30T08:35:47.314Z,988.63
2017-12-30T08:36:47.325Z,988.60
2017-12-30T08:37:47.342Z,988.61
2017-12-30T08:38:47.363Z,988.56
2017-12-30T08:39:47.378Z,988.56
2017-12-30T08:40:47.404Z,988.45
2017-12-30T08:41:47.414Z,988.49
2017-12-30T08:42:47.542Z,988.51
2017-12-30T08:43:47.449Z,988.51
2017-12-30T08:44:47.472Z,988.49
2017-12-30T08:45:47.485Z,988.45
2017-12-30T08:46:47.508Z,988.41
2017-12-30T08:47:47.520Z,988.34
2017-12-30T08:48:47.544Z,988.36
2017-12-30T08:49:47.556Z,988.39
2017-12-30T08:50:47.579Z,988.37
2017-12-30T08:51:47.591Z,988.42
2017-12-30T08:52:47.609Z,988.34
2017-12-30T08:53:47.627Z,988.36
2017-12-30T08:54:47.650Z,988.31
2017-12-30T08:55:47.668Z,988.21
2017-12-30T08:56:47.680Z,988.18
2017-12-30T08:57:47.704Z,988.11
2017-12-30T08:58:47.718Z,988.08
2017-12-30T08:59:47.738Z,988.08
2017-12-30T09:00:47.752Z,987.98
2017-12-30T09:01:47.775Z,987.99
2017-12-30T09:02:47.788Z,987.99
2017-12-30T09:03:47.814Z,987.94
2017-12-30T09:04:47.828Z,987.91
2017-12-30T09:05:47.841Z,987.94
2017-12-30T09:06:47.863Z,987.91
2017-12-30T09:07:47.880Z,987.88
2017-12-30T09:08:47.935Z,987.87
2017-12-30T09:09:47.911Z,987.93
2017-12-30T09:10:47.927Z,987.89
2017-12-30T09:11:47.953Z,987.84
2017-12-30T09:12:47.970Z,987.81
2017-12-30T09:13:47.982Z,987.83
2017-12-30T09:14:48.001Z,987.79
2017-12-30T09:15:48.024Z,987.77
2017-12-30T09:16:48.043Z,987.81
2017-12-30T09:17:48.055Z,987.76
2017-12-30T09:18:48.071Z,987.70
2017-12-30T09:19:48.094Z,987.82
2017-12-30T09:20:48.107Z,987.74
2017-12-30T09:21:48.134Z,987.68
2017-12-30T09:22:48.148Z,987.69
2017-12-30T09:23:48.167Z,987.59
2017-12-30T09:24:48.184Z,987.50
2017-12-30T09:25:48.204Z,987.61
2017-12-30T09:26:48.214Z,987.59
2017-12-30T09:27:48.236Z,987.61
2017-12-30T09:28:48.250Z,987.62
2017-12-30T09:29:48.274Z,987.51
2017-12-30T09:30:48.291Z,987.58
2017-12-30T09:31:48.303Z,987.63
2017-12-30T09:32:48.322Z,987.54
2017-12-30T09:33:48.344Z,987.51
2017-12-30T09:34:48.362Z,987.43
2017-12-30T09:35:48.377Z,987.42
2017-12-30T09:36:48.396Z,987.39
2017-12-30T09:37:48.410Z,987.36
2017-12-30T09:38:48.427Z,987.32
2017-12-30T09:39:48.445Z,987.45
2017-12-30T09:40:48.464Z,987.46
2017-12-30T09:41:48.480Z,987.45
2017-12-30T09:42:48.504Z,987.41
2017-12-30T09:43:48.517Z,987.30
2017-12-30T09:44:48.535Z,987.41
2017-12-30T09:45:48.558Z,987.36
2017-12-30T09:46:48.570Z,987.54
2017-12-30T09:47:48.593Z,987.44
2017-12-30T09:48:48.605Z,987.43
2017-12-30T09:49:48.629Z,987.41
2017-12-30T09:50:48.640Z,987.29
2017-12-30T09:51:48.664Z,987.21
2017-12-30T09:52:48.682Z,987.20
2017-12-30T09:53:48.696Z,987.18
2017-12-30T09:54:48.717Z,987.15
2017-12-30T09:55:48.735Z,987.11
2017-12-30T09:56:48.747Z,987.09
2017-12-30T09:57:48.765Z,986.97
2017-12-30T09:58:48.783Z,987.02
2017-12-30T09:59:48.806Z,987.02
2017-12-30T10:00:48.821Z,987.00
2017-12-30T10:01:48.843Z,986.99
2017-12-30T10:02:48.865Z,986.90
2017-12-30T10:03:48.872Z,986.87
2017-12-30T10:04:48.891Z,986.91
2017-12-30T10:05:48.914Z,986.86
2017-12-30T10:06:48.936Z,986.87
2017-12-30T10:07:48.943Z,986.83
2017-12-30T10:08:48.966Z,986.72
2017-12-30T10:09:48.979Z,986.77
2017-12-30T10:10:49.006Z,986.69
2017-12-30T10:11:49.020Z,986.66
2017-12-30T10:12:49.033Z,986.61
2017-12-30T10:13:49.059Z,986.62
2017-12-30T10:14:49.068Z,986.52
2017-12-30T10:15:49.093Z,986.46
2017-12-30T10:16:49.106Z,986.51
2017-12-30T10:17:49.127Z,986.41
2017-12-30T10:18:49.145Z,986.41
2017-12-30T10:19:49.159Z,986.37
2017-12-30T10:20:49.176Z,986.36
2017-12-30T10:21:49.199Z,986.37
2017-12-30T10:22:49.216Z,986.40
2017-12-30T10:23:49.228Z,986.32
2017-12-30T10:24:49.247Z,986.29
2017-12-30T10:25:49.271Z,986.30
2017-12-30T10:26:49.288Z,986.30
2017-12-30T10:27:49.307Z,986.31
2017-12-30T10:28:49.324Z,986.29
2017-12-30T10:29:49.344Z,986.27
2017-12-30T10:30:49.356Z,986.18
2017-12-30T10:31:49.378Z,986.15
2017-12-30T10:32:49.397Z,986.20
2017-12-30T10:33:49.410Z,986.21
2017-12-30T10:34:49.433Z,986.18
2017-12-30T10:35:49.445Z,986.10
2017-12-30T10:42:45.954Z,986.12
2017-12-30T10:43:45.966Z,986.09
2017-12-30T10:44:45.989Z,986.12
2017-12-30T10:45:46.008Z,986.12
2017-12-30T10:46:46.021Z,986.11
2017-12-30T10:47:46.039Z,986.14
2017-12-30T10:50:26.313Z,986.27
2017-12-30T10:58:22.224Z,986.14
2017-12-30T10:59:22.241Z,986.13
2017-12-30T11:00:22.252Z,986.19
2017-12-30T11:01:22.275Z,986.16
2017-12-30T11:02:22.288Z,986.26
2017-12-30T11:03:22.360Z,986.08
2017-12-30T11:04:22.323Z,986.27
2017-12-30T11:05:22.345Z,986.30
2017-12-30T11:06:22.358Z,986.27
2017-12-30T11:07:22.377Z,986.26
2017-12-30T11:08:22.401Z,986.37
2017-12-30T11:09:22.419Z,986.34
2017-12-30T11:10:22.431Z,986.31
2017-12-30T11:14:56.194Z,986.34
2017-12-30T11:15:56.214Z,986.29
2017-12-30T11:16:56.254Z,986.23
2017-12-30T11:17:56.249Z,986.31
2017-12-30T11:18:56.268Z,986.28
2017-12-30T11:19:56.287Z,986.19
2017-12-30T11:20:56.298Z,986.20
2017-12-30T11:21:56.317Z,986.21
2017-12-30T11:22:56.342Z,986.20
2017-12-30T11:23:56.361Z,986.17
2017-12-30T11:24:56.372Z,986.11
2017-12-30T11:25:56.398Z,986.11
2017-12-30T11:26:56.411Z,986.08
2017-12-30T11:27:56.438Z,986.15
2017-12-30T11:28:56.448Z,986.09
2017-12-30T11:29:56.473Z,986.07
2017-12-30T11:30:56.488Z,986.09
2017-12-30T11:31:56.512Z,986.14
2017-12-30T11:32:56.547Z,986.10
2017-12-30T11:33:56.549Z,986.11
2017-12-30T11:34:56.562Z,986.16
2017-12-30T11:35:56.587Z,986.19
2017-12-30T11:36:56.600Z,986.12
2017-12-30T11:37:56.626Z,986.04
2017-12-30T11:38:56.638Z,986.04
2017-12-30T11:39:56.664Z,985.88
2017-12-30T11:40:56.676Z,985.96
2017-12-30T11:41:56.696Z,985.94
2017-12-30T11:42:56.721Z,986.00
2017-12-30T11:43:56.740Z,985.98
2017-12-30T11:44:56.752Z,986.00
2017-12-30T11:45:56.773Z,985.93
2017-12-30T11:46:56.798Z,985.91
2017-12-30T11:47:56.812Z,985.94
2017-12-30T11:48:56.836Z,985.96
2017-12-30T11:49:56.849Z,986.00
2017-12-30T11:50:56.875Z,985.97
2017-12-30T11:51:56.890Z,985.99
2017-12-30T11:52:56.913Z,985.99
2017-12-30T11:53:56.928Z,985.95
2017-12-30T11:54:56.955Z,985.95
2017-12-30T11:55:56.966Z,985.96
2017-12-30T11:56:56.991Z,986.07
2017-12-30T11:57:57.011Z,986.10
2017-12-30T11:58:57.024Z,986.15
2017-12-30T11:59:57.044Z,986.14
2017-12-30T12:00:57.068Z,986.02
2017-12-30T12:01:57.082Z,986.07
2017-12-30T12:02:57.109Z,986.13
2017-12-30T12:03:57.130Z,986.05
2017-12-30T12:04:57.142Z,986.16
2017-12-30T12:05:57.161Z,986.10
2017-12-30T12:06:57.188Z,986.10
2017-12-30T12:07:57.207Z,986.00
2017-12-30T12:08:57.221Z,986.04
2017-12-30T12:09:57.240Z,986.00
2017-12-30T12:10:57.266Z,986.06
2017-12-30T12:11:57.286Z,986.01
2017-12-30T12:12:57.313Z,986.01
2017-12-30T12:13:57.324Z,986.05
2017-12-30T12:14:57.342Z,986.02
2017-12-30T12:15:57.365Z,986.07
2017-12-30T12:16:57.419Z,986.11
2017-12-30T12:17:57.398Z,986.11
2017-12-30T12:18:57.424Z,986.14
2017-12-30T12:19:57.448Z,986.15
2017-12-30T12:20:57.457Z,986.20
2017-12-30T12:21:57.478Z,986.14
2017-12-30T12:22:57.504Z,986.17
2017-12-30T12:23:57.524Z,986.17
2017-12-30T12:24:57.537Z,986.19
2017-12-30T12:25:57.566Z,986.19
2017-12-30T12:26:57.579Z,986.09
2017-12-30T12:27:57.605Z,986.12
2017-12-30T12:28:57.619Z,986.06
2017-12-30T12:29:57.644Z,986.08
2017-12-30T12:30:57.659Z,986.23
2017-12-30T12:31:57.684Z,986.15
2017-12-30T12:32:57.700Z,986.24
2017-12-30T12:33:57.725Z,986.28
2017-12-30T12:34:57.739Z,986.29
2017-12-30T12:35:57.767Z,986.31
2017-12-30T12:36:57.780Z,986.31
2017-12-30T12:37:57.806Z,986.28
2017-12-30T12:38:57.820Z,986.27
2017-12-30T12:39:57.847Z,986.21
2017-12-30T12:40:57.860Z,986.25
2017-12-30T12:41:57.885Z,986.30
2017-12-30T12:42:57.907Z,986.27
2017-12-30T12:43:57.929Z,986.21
2017-12-30T12:44:57.949Z,986.22
2017-12-30T12:45:57.964Z,986.27
2017-12-30T12:46:57.990Z,986.13